Tropical Cyclones
[Index]
Main Index Home Page Stock Weather Photos Extreme Storms Discussion Storm News and Storm Chasing Reports Tropical Cyclones / Hurricanes / Typhoons Weather Data and Links Wild Fires / Bushfires Weather Observation Techniques Weather Picture Catalogue Tornado Pictures and Reports Stock Video Footage and DVDs for sale
Season 1981-1982 Tropical Cyclone GYAN Track Map
Season 1981-1982 Summaries: [BoM-AU] [JTWC-AU] [JTWC-SIO] [JTWC-SPAC] [JTWC-SH]
<<- Previous TC | JTWC 1981-1982 Season | Next TC ->>

click for intensity scale information  Lat/long Grid: Show Hide

 Date Labels: Show Hide

Joint Typhoon Warning Centre Cyclone Data

Name: GYAN

19 Dec 1981 00:00 UTC to 27 Dec 1981 00:00 UTC

    date/time    lat    long     hPa   cat  kts
1981-12-19 00    8.9   169.9                              
1981-12-19 06    9.3   169.4                              
1981-12-19 12    9.8   169.0                              
1981-12-19 18   10.4   168.6                              
1981-12-20 00   11.0   168.2                              
1981-12-20 06   11.6   167.8                              
1981-12-20 12   12.2   167.4                              
1981-12-20 18   12.8   167.1                              
1981-12-21 00   13.3   166.5                              
1981-12-21 06   13.9   165.4                              
1981-12-21 12   14.7   164.3                              
1981-12-21 18   16.2   163.2                              
1981-12-22 00   17.5   162.1                              
1981-12-22 06   17.9   161.8                              
1981-12-22 12   18.2   162.0                              
1981-12-22 18   18.5   162.0                              
1981-12-23 00   18.8   162.2                              
1981-12-23 06   19.4   162.7                              
1981-12-23 12   20.2   163.5                              
1981-12-23 18   20.8   164.4                              
1981-12-24 00   21.3   165.2                              
1981-12-24 06   21.5   165.5                              
1981-12-24 12   21.7   165.8                              
1981-12-24 18   22.0   166.4                              
1981-12-25 00   22.2   166.8                              
1981-12-25 06   22.4   166.8                              
1981-12-25 12   22.6   166.5                              
1981-12-25 18   22.8   166.2                              
1981-12-26 00   23.0   165.9                              
1981-12-26 06   23.0   165.5                              
1981-12-26 12   23.0   165.1                              
1981-12-26 18   23.1   164.7                              
1981-12-27 00   23.3   164.3                              
Winds are 1-min average.

Tropical cyclone tracks developed by Michael Bath using data from the Joint Typhoon Warning Centre Best Tracks and Google Maps.


[Australian Severe Weather index] [Copyright Notice] [Email Contacts] [Search This Site] [Privacy Policy]
Document: tropical_cyclone_gyan.htm Updated: 18 September 2016